sensor_id;sensor_type;location;lat;lon;timestamp;pressure;altitude;pressure_sealevel;temperature;humidity
43420;BME280;29017;51.514;-0.178;2022-12-20T00:00:50;100102.88;;;14.40;100.00
43420;BME280;29017;51.514;-0.178;2022-12-20T00:03:17;100096.78;;;14.40;100.00
43420;BME280;29017;51.514;-0.178;2022-12-20T00:05:45;100090.66;;;14.39;100.00
43420;BME280;29017;51.514;-0.178;2022-12-20T00:08:12;100103.44;;;14.36;100.00
43420;BME280;29017;51.514;-0.178;2022-12-20T00:10:40;100091.06;;;14.36;100.00
43420;BME280;29017;51.514;-0.178;2022-12-20T00:13:07;100095.88;;;14.33;100.00
43420;BME280;29017;51.514;-0.178;2022-12-20T00:15:34;100102.41;;;14.30;100.00
43420;BME280;29017;51.514;-0.178;2022-12-20T00:18:01;100106.03;;;14.29;100.00
43420;BME280;29017;51.514;-0.178;2022-12-20T00:20:28;100096.47;;;14.28;100.00
43420;BME280;29017;51.514;-0.178;2022-12-20T00:22:55;100088.16;;;14.31;100.00
43420;BME280;29017;51.514;-0.178;2022-12-20T00:25:22;100100.75;;;14.29;100.00
43420;BME280;29017;51.514;-0.178;2022-12-20T00:27:49;100088.75;;;14.27;100.00
43420;BME280;29017;51.514;-0.178;2022-12-20T00:30:16;100096.69;;;14.27;100.00
43420;BME280;29017;51.514;-0.178;2022-12-20T00:32:43;100079.16;;;14.26;100.00
43420;BME280;29017;51.514;-0.178;2022-12-20T00:35:11;100085.28;;;14.26;100.00
43420;BME280;29017;51.514;-0.178;2022-12-20T00:37:38;100090.16;;;14.29;100.00
43420;BME280;29017;51.514;-0.178;2022-12-20T00:40:05;100076.94;;;14.29;100.00
43420;BME280;29017;51.514;-0.178;2022-12-20T00:42:32;100071.47;;;14.31;100.00
43420;BME280;29017;51.514;-0.178;2022-12-20T00:44:59;100070.44;;;14.32;100.00
43420;BME280;29017;51.514;-0.178;2022-12-20T00:47:26;100065.97;;;14.32;100.00
43420;BME280;29017;51.514;-0.178;2022-12-20T00:49:53;100076.13;;;14.29;100.00
43420;BME280;29017;51.514;-0.178;2022-12-20T00:52:20;100065.53;;;14.29;100.00
43420;BME280;29017;51.514;-0.178;2022-12-20T00:54:47;100069.81;;;14.30;100.00
43420;BME280;29017;51.514;-0.178;2022-12-20T00:57:14;100071.03;;;14.27;100.00
43420;BME280;29017;51.514;-0.178;2022-12-20T00:59:41;100072.22;;;14.25;100.00
43420;BME280;29017;51.514;-0.178;2022-12-20T01:02:08;100065.47;;;14.22;100.00
43420;BME280;29017;51.514;-0.178;2022-12-20T01:04:35;100077.09;;;14.21;100.00
43420;BME280;29017;51.514;-0.178;2022-12-20T01:07:02;100066.31;;;14.23;100.00
43420;BME280;29017;51.514;-0.178;2022-12-20T01:09:30;100069.16;;;14.21;100.00
43420;BME280;29017;51.514;-0.178;2022-12-20T01:11:56;100068.13;;;14.22;100.00
43420;BME280;29017;51.514;-0.178;2022-12-20T01:14:23;100071.81;;;14.21;100.00
43420;BME280;29017;51.514;-0.178;2022-12-20T01:16:50;100063.66;;;14.16;100.00
43420;BME280;29017;51.514;-0.178;2022-12-20T01:19:19;100077.69;;;14.17;100.00
43420;BME280;29017;51.514;-0.178;2022-12-20T01:21:46;100075.06;;;14.17;100.00
43420;BME280;29017;51.514;-0.178;2022-12-20T01:24:13;100069.75;;;14.17;100.00
43420;BME280;29017;51.514;-0.178;2022-12-20T01:26:41;100057.13;;;14.19;100.00
43420;BME280;29017;51.514;-0.178;2022-12-20T01:29:08;100055.13;;;14.21;100.00
43420;BME280;29017;51.514;-0.178;2022-12-20T01:31:35;100057.53;;;14.22;100.00
43420;BME280;29017;51.514;-0.178;2022-12-20T01:34:02;100067.94;;;14.24;100.00
43420;BME280;29017;51.514;-0.178;2022-12-20T01:36:30;100052.25;;;14.22;100.00
43420;BME280;29017;51.514;-0.178;2022-12-20T01:38:58;100055.13;;;14.21;100.00
43420;BME280;29017;51.514;-0.178;2022-12-20T01:47:11;100060.41;;;14.21;100.00
43420;BME280;29017;51.514;-0.178;2022-12-20T01:49:41;100055.13;;;14.21;100.00
43420;BME280;29017;51.514;-0.178;2022-12-20T01:52:11;100052.25;;;14.22;100.00
43420;BME280;29017;51.514;-0.178;2022-12-20T01:54:40;100049.25;;;14.25;100.00
43420;BME280;29017;51.514;-0.178;2022-12-20T01:57:10;100047.41;;;14.26;100.00
43420;BME280;29017;51.514;-0.178;2022-12-20T01:59:39;100036.81;;;14.26;100.00
43420;BME280;29017;51.514;-0.178;2022-12-20T02:02:07;100029.91;;;14.25;100.00
43420;BME280;29017;51.514;-0.178;2022-12-20T02:04:35;100027.06;;;14.26;100.00
43420;BME280;29017;51.514;-0.178;2022-12-20T02:07:02;100037.66;;;14.26;100.00
43420;BME280;29017;51.514;-0.178;2022-12-20T02:09:30;100031.53;;;14.26;100.00
43420;BME280;29017;51.514;-0.178;2022-12-20T02:34:20;100035.38;;;14.23;100.00
43420;BME280;29017;51.514;-0.178;2022-12-20T02:36:50;100033.53;;;14.24;100.00
43420;BME280;29017;51.514;-0.178;2022-12-20T02:39:18;100041.47;;;14.24;100.00
43420;BME280;29017;51.514;-0.178;2022-12-20T02:41:47;100024.41;;;14.26;100.00
43420;BME280;29017;51.514;-0.178;2022-12-20T02:44:18;100019.94;;;14.27;100.00
43420;BME280;29017;51.514;-0.178;2022-12-20T02:46:48;100013.81;;;14.26;100.00
43420;BME280;29017;51.514;-0.178;2022-12-20T02:49:17;100014.44;;;14.28;100.00
43420;BME280;29017;51.514;-0.178;2022-12-20T02:51:46;100012.59;;;14.29;100.00
43420;BME280;29017;51.514;-0.178;2022-12-20T02:54:15;100015.47;;;14.27;100.00
43420;BME280;29017;51.514;-0.178;2022-12-20T03:01:41;100003.66;;;14.30;100.00
43420;BME280;29017;51.514;-0.178;2022-12-20T03:04:10;99997.16;;;14.32;100.00
43420;BME280;29017;51.514;-0.178;2022-12-20T03:09:54;99981.28;;;14.32;100.00
43420;BME280;29017;51.514;-0.178;2022-12-20T03:12:21;99984.53;;;14.34;100.00
43420;BME280;29017;51.514;-0.178;2022-12-20T03:14:48;99976.78;;;14.33;100.00
43420;BME280;29017;51.514;-0.178;2022-12-20T03:17:15;99973.53;;;14.31;100.00
43420;BME280;29017;51.514;-0.178;2022-12-20T03:19:42;99992.66;;;14.33;100.00
43420;BME280;29017;51.514;-0.178;2022-12-20T03:22:08;99973.13;;;14.34;100.00
43420;BME280;29017;51.514;-0.178;2022-12-20T03:24:35;99974.78;;;14.35;100.00
43420;BME280;29017;51.514;-0.178;2022-12-20T03:27:02;99966.66;;;14.36;100.00
43420;BME280;29017;51.514;-0.178;2022-12-20T03:29:29;99971.56;;;14.39;100.00
43420;BME280;29017;51.514;-0.178;2022-12-20T03:31:56;99968.09;;;14.39;100.00
43420;BME280;29017;51.514;-0.178;2022-12-20T03:34:23;99963.81;;;14.38;100.00
43420;BME280;29017;51.514;-0.178;2022-12-20T03:36:49;99963.81;;;14.38;100.00
43420;BME280;29017;51.514;-0.178;2022-12-20T03:39:16;99963.19;;;14.36;100.00
43420;BME280;29017;51.514;-0.178;2022-12-20T03:41:43;99966.66;;;14.36;100.00
43420;BME280;29017;51.514;-0.178;2022-12-20T03:44:10;99969.47;;;14.35;100.00
43420;BME280;29017;51.514;-0.178;2022-12-20T03:46:37;99961.13;;;14.31;100.00
43420;BME280;29017;51.514;-0.178;2022-12-20T03:49:04;99962.94;;;14.31;100.00
43420;BME280;29017;51.514;-0.178;2022-12-20T03:51:31;99953.78;;;14.33;100.00
43420;BME280;29017;51.514;-0.178;2022-12-20T03:53:58;99946.25;;;14.30;100.00
43420;BME280;29017;51.514;-0.178;2022-12-20T03:56:25;99951.75;;;14.29;100.00
43420;BME280;29017;51.514;-0.178;2022-12-20T03:58:51;99947.44;;;14.28;100.00
43420;BME280;29017;51.514;-0.178;2022-12-20T04:01:19;99949.09;;;14.29;100.00
43420;BME280;29017;51.514;-0.178;2022-12-20T04:03:47;99945.44;;;14.30;100.00
43420;BME280;29017;51.514;-0.178;2022-12-20T04:06:15;99947.06;;;14.31;100.00
43420;BME280;29017;51.514;-0.178;2022-12-20T04:08:42;99934.03;;;14.29;100.00
43420;BME280;29017;51.514;-0.178;2022-12-20T04:11:09;99945.44;;;14.30;100.00
43420;BME280;29017;51.514;-0.178;2022-12-20T04:13:39;99940.16;;;14.30;100.00
43420;BME280;29017;51.514;-0.178;2022-12-20T04:16:06;99936.69;;;14.29;100.00
43420;BME280;29017;51.514;-0.178;2022-12-20T04:18:33;99941.38;;;14.27;100.00
43420;BME280;29017;51.514;-0.178;2022-12-20T04:21:00;99945.84;;;14.27;100.00
43420;BME280;29017;51.514;-0.178;2022-12-20T04:23:28;99960.91;;;14.26;100.00
43420;BME280;29017;51.514;-0.178;2022-12-20T04:25:55;99956.44;;;14.27;100.00
43420;BME280;29017;51.514;-0.178;2022-12-20T04:28:22;99944.41;;;14.24;100.00
43420;BME280;29017;51.514;-0.178;2022-12-20T04:30:48;99947.22;;;14.23;100.00
43420;BME280;29017;51.514;-0.178;2022-12-20T04:33:15;99940.72;;;14.19;100.00
43420;BME280;29017;51.514;-0.178;2022-12-20T04:35:42;99949.88;;;14.16;100.00
43420;BME280;29017;51.514;-0.178;2022-12-20T04:38:09;99935.59;;;14.17;100.00
43420;BME280;29017;51.514;-0.178;2022-12-20T04:40:36;99931.94;;;14.18;100.00
43420;BME280;29017;51.514;-0.178;2022-12-20T04:43:03;99926.66;;;14.18;100.00
43420;BME280;29017;51.514;-0.178;2022-12-20T04:45:30;99932.97;;;14.17;100.00
43420;BME280;29017;51.514;-0.178;2022-12-20T04:47:56;99921.97;;;14.13;100.00
43420;BME280;29017;51.514;-0.178;2022-12-20T04:50:34;99924.81;;;14.12;100.00
43420;BME280;29017;51.514;-0.178;2022-12-20T04:53:01;99915.03;;;14.12;100.00
43420;BME280;29017;51.514;-0.178;2022-12-20T04:55:35;99914.22;;;14.12;100.00
43420;BME280;29017;51.514;-0.178;2022-12-20T04:58:02;99901.63;;;14.14;100.00
43420;BME280;29017;51.514;-0.178;2022-12-20T05:00:33;99901.63;;;14.14;100.00
43420;BME280;29017;51.514;-0.178;2022-12-20T05:03:00;99911.38;;;14.13;100.00
43420;BME280;29017;51.514;-0.178;2022-12-20T05:05:41;99905.28;;;14.13;100.00
43420;BME280;29017;51.514;-0.178;2022-12-20T05:08:08;99901.63;;;14.14;100.00
43420;BME280;29017;51.514;-0.178;2022-12-20T05:10:35;99907.09;;;14.12;100.00
43420;BME280;29017;51.514;-0.178;2022-12-20T05:13:02;99917.50;;;14.14;100.00
43420;BME280;29017;51.514;-0.178;2022-12-20T05:15:34;99902.63;;;14.13;100.00
43420;BME280;29017;51.514;-0.178;2022-12-20T05:18:02;99912.63;;;14.11;100.00
43420;BME280;29017;51.514;-0.178;2022-12-20T05:20:29;99917.69;;;14.12;100.00
43420;BME280;29017;51.514;-0.178;2022-12-20T05:22:57;99922.59;;;14.16;100.00
43420;BME280;29017;51.514;-0.178;2022-12-20T05:25:27;99915.25;;;14.18;100.00
43420;BME280;29017;51.514;-0.178;2022-12-20T05:27:57;99928.50;;;14.18;100.00
43420;BME280;29017;51.514;-0.178;2022-12-20T05:30:24;99928.50;;;14.18;100.00
43420;BME280;29017;51.514;-0.178;2022-12-20T05:32:51;99918.34;;;14.21;100.00
43420;BME280;29017;51.514;-0.178;2022-12-20T05:35:18;99915.69;;;14.21;100.00
43420;BME280;29017;51.514;-0.178;2022-12-20T05:37:45;99913.66;;;14.23;100.00
43420;BME280;29017;51.514;-0.178;2022-12-20T05:40:12;99910.59;;;14.20;100.00
43420;BME280;29017;51.514;-0.178;2022-12-20T05:42:39;99909.59;;;14.21;100.00
43420;BME280;29017;51.514;-0.178;2022-12-20T05:45:06;99910.41;;;14.21;100.00
43420;BME280;29017;51.514;-0.178;2022-12-20T05:47:33;99917.53;;;14.21;100.00
43420;BME280;29017;51.514;-0.178;2022-12-20T05:50:00;99912.25;;;14.21;100.00
43420;BME280;29017;51.514;-0.178;2022-12-20T05:52:27;99924.47;;;14.22;100.00
43420;BME280;29017;51.514;-0.178;2022-12-20T05:54:54;99912.25;;;14.21;100.00
43420;BME280;29017;51.514;-0.178;2022-12-20T05:57:20;99913.88;;;14.22;100.00
43420;BME280;29017;51.514;-0.178;2022-12-20T05:59:47;99922.81;;;14.21;100.00
43420;BME280;29017;51.514;-0.178;2022-12-20T06:02:14;99925.03;;;14.17;100.00
43420;BME280;29017;51.514;-0.178;2022-12-20T06:04:41;99927.88;;;14.16;100.00
43420;BME280;29017;51.514;-0.178;2022-12-20T06:07:08;99931.72;;;14.13;100.00
43420;BME280;29017;51.514;-0.178;2022-12-20T06:09:35;99928.91;;;14.14;100.00
43420;BME280;29017;51.514;-0.178;2022-12-20T06:12:02;99935.59;;;14.17;100.00
43420;BME280;29017;51.514;-0.178;2022-12-20T06:14:29;99941.13;;;14.16;100.00
43420;BME280;29017;51.514;-0.178;2022-12-20T06:16:56;99941.13;;;14.16;100.00
43420;BME280;29017;51.514;-0.178;2022-12-20T06:19:23;99951.88;;;14.14;100.00
43420;BME280;29017;51.514;-0.178;2022-12-20T06:21:50;99955.94;;;14.10;100.00
43420;BME280;29017;51.514;-0.178;2022-12-20T06:24:17;99959.19;;;14.12;100.00
43420;BME280;29017;51.514;-0.178;2022-12-20T06:26:44;99954.31;;;14.09;100.00
43420;BME280;29017;51.514;-0.178;2022-12-20T06:29:11;99964.66;;;14.04;100.00
43420;BME280;29017;51.514;-0.178;2022-12-20T06:31:39;99976.25;;;14.03;100.00
43420;BME280;29017;51.514;-0.178;2022-12-20T06:34:06;100000.28;;;14.01;100.00
43420;BME280;29017;51.514;-0.178;2022-12-20T06:36:33;100005.16;;;14.04;100.00
43420;BME280;29017;51.514;-0.178;2022-12-20T06:39:00;100014.53;;;14.07;100.00
43420;BME280;29017;51.514;-0.178;2022-12-20T06:41:35;100028.97;;;14.04;100.00
43420;BME280;29017;51.514;-0.178;2022-12-20T06:44:02;100043.78;;;13.99;100.00
43420;BME280;29017;51.514;-0.178;2022-12-20T06:46:29;100046.38;;;13.92;100.00
43420;BME280;29017;51.514;-0.178;2022-12-20T06:48:56;100046.97;;;13.88;100.00
43420;BME280;29017;51.514;-0.178;2022-12-20T06:51:22;100052.25;;;13.88;100.00
43420;BME280;29017;51.514;-0.178;2022-12-20T06:53:49;100052.66;;;13.85;100.00
43420;BME280;29017;51.514;-0.178;2022-12-20T06:56:16;100062.19;;;13.79;100.00
43420;BME280;29017;51.514;-0.178;2022-12-20T06:58:44;100068.41;;;13.71;100.00
43420;BME280;29017;51.514;-0.178;2022-12-20T07:01:12;100073.44;;;13.66;100.00
43420;BME280;29017;51.514;-0.178;2022-12-20T07:03:52;100074.25;;;13.60;100.00
43420;BME280;29017;51.514;-0.178;2022-12-20T07:06:19;100086.00;;;13.58;100.00
43420;BME280;29017;51.514;-0.178;2022-12-20T07:09:00;100093.69;;;13.53;100.00
43420;BME280;29017;51.514;-0.178;2022-12-20T07:11:27;100107.66;;;13.47;100.00
43420;BME280;29017;51.514;-0.178;2022-12-20T07:14:13;100110.03;;;13.42;100.00
43420;BME280;29017;51.514;-0.178;2022-12-20T07:16:40;100117.34;;;13.40;100.00
43420;BME280;29017;51.514;-0.178;2022-12-20T07:19:10;100120.56;;;13.35;100.00
43420;BME280;29017;51.514;-0.178;2022-12-20T07:21:37;100119.09;;;13.33;100.00
43420;BME280;29017;51.514;-0.178;2022-12-20T07:24:04;100117.66;;;13.30;100.00
43420;BME280;29017;51.514;-0.178;2022-12-20T07:26:32;100134.88;;;13.26;100.00
43420;BME280;29017;51.514;-0.178;2022-12-20T07:28:58;100153.31;;;13.19;100.00
43420;BME280;29017;51.514;-0.178;2022-12-20T07:31:39;100146.78;;;13.15;99.86
43420;BME280;29017;51.514;-0.178;2022-12-20T07:34:06;100147.13;;;13.12;100.00
43420;BME280;29017;51.514;-0.178;2022-12-20T07:36:36;100150.59;;;13.13;100.00
43420;BME280;29017;51.514;-0.178;2022-12-20T07:39:04;100159.69;;;13.10;99.32
43420;BME280;29017;51.514;-0.178;2022-12-20T07:41:31;100166.97;;;13.08;99.42
43420;BME280;29017;51.514;-0.178;2022-12-20T07:43:58;100168.97;;;13.06;99.79
43420;BME280;29017;51.514;-0.178;2022-12-20T07:46:25;100162.88;;;13.06;99.87
43420;BME280;29017;51.514;-0.178;2022-12-20T07:48:53;100162.00;;;12.99;99.68
43420;BME280;29017;51.514;-0.178;2022-12-20T07:51:22;100169.91;;;12.99;100.00
43420;BME280;29017;51.514;-0.178;2022-12-20T07:53:51;100175.38;;;12.97;100.00
43420;BME280;29017;51.514;-0.178;2022-12-20T07:56:20;100172.91;;;12.96;100.00
43420;BME280;29017;51.514;-0.178;2022-12-20T07:58:48;100172.47;;;12.92;100.00
43420;BME280;29017;51.514;-0.178;2022-12-20T08:01:15;100184.56;;;12.86;100.00
43420;BME280;29017;51.514;-0.178;2022-12-20T08:03:44;100188.75;;;12.81;100.00
43420;BME280;29017;51.514;-0.178;2022-12-20T08:06:13;100204.34;;;12.76;100.00
43420;BME280;29017;51.514;-0.178;2022-12-20T08:08:41;100194.50;;;12.70;100.00
43420;BME280;29017;51.514;-0.178;2022-12-20T08:11:10;100208.06;;;12.67;100.00
43420;BME280;29017;51.514;-0.178;2022-12-20T08:13:38;100206.63;;;12.64;100.00
43420;BME280;29017;51.514;-0.178;2022-12-20T08:16:12;100219.56;;;12.59;100.00
43420;BME280;29017;51.514;-0.178;2022-12-20T08:18:39;100227.81;;;12.56;100.00
43420;BME280;29017;51.514;-0.178;2022-12-20T08:21:06;100234.91;;;12.56;100.00
43420;BME280;29017;51.514;-0.178;2022-12-20T08:23:33;100246.44;;;12.55;100.00
43420;BME280;29017;51.514;-0.178;2022-12-20T08:26:00;100249.09;;;12.55;100.00
43420;BME280;29017;51.514;-0.178;2022-12-20T08:28:28;100241.19;;;12.55;100.00
43420;BME280;29017;51.514;-0.178;2022-12-20T08:33:25;100246.44;;;12.55;100.00
43420;BME280;29017;51.514;-0.178;2022-12-20T08:38:24;100262.28;;;12.55;100.00
43420;BME280;29017;51.514;-0.178;2022-12-20T08:40:51;100266.13;;;12.52;100.00
43420;BME280;29017;51.514;-0.178;2022-12-20T08:43:18;100279.19;;;12.46;100.00
43420;BME280;29017;51.514;-0.178;2022-12-20T08:45:50;100280.09;;;12.38;100.00
43420;BME280;29017;51.514;-0.178;2022-12-20T08:48:17;100276.53;;;12.31;100.00
43420;BME280;29017;51.514;-0.178;2022-12-20T08:50:44;100276.91;;;12.28;100.00
43420;BME280;29017;51.514;-0.178;2022-12-20T08:53:11;100285.34;;;12.23;100.00
43420;BME280;29017;51.514;-0.178;2022-12-20T08:55:38;100291.25;;;12.25;100.00
43420;BME280;29017;51.514;-0.178;2022-12-20T08:58:06;100287.59;;;12.26;100.00
43420;BME280;29017;51.514;-0.178;2022-12-20T09:00:33;100297.78;;;12.29;100.00
43420;BME280;29017;51.514;-0.178;2022-12-20T09:03:00;100299.00;;;12.27;98.95
43420;BME280;29017;51.514;-0.178;2022-12-20T09:05:27;100304.63;;;12.24;98.04
43420;BME280;29017;51.514;-0.178;2022-12-20T09:07:54;100305.13;;;12.19;96.45
43420;BME280;29017;51.514;-0.178;2022-12-20T09:10:21;100301.41;;;12.14;96.37
43420;BME280;29017;51.514;-0.178;2022-12-20T09:12:48;100296.63;;;12.09;95.71
43420;BME280;29017;51.514;-0.178;2022-12-20T09:15:15;100307.72;;;12.05;94.97
43420;BME280;29017;51.514;-0.178;2022-12-20T09:17:42;100326.53;;;12.02;95.01
43420;BME280;29017;51.514;-0.178;2022-12-20T09:20:09;100331.34;;;11.98;94.60
43420;BME280;29017;51.514;-0.178;2022-12-20T09:22:36;100333.16;;;11.97;95.19
43420;BME280;29017;51.514;-0.178;2022-12-20T09:25:03;100345.66;;;11.95;94.73
43420;BME280;29017;51.514;-0.178;2022-12-20T09:27:32;100351.09;;;11.94;94.99
43420;BME280;29017;51.514;-0.178;2022-12-20T09:29:59;100348.66;;;11.92;94.81
43420;BME280;29017;51.514;-0.178;2022-12-20T09:32:26;100347.84;;;11.92;94.90
43420;BME280;29017;51.514;-0.178;2022-12-20T09:34:53;100348.00;;;11.90;94.98
43420;BME280;29017;51.514;-0.178;2022-12-20T09:37:20;100362.38;;;11.88;95.06
43420;BME280;29017;51.514;-0.178;2022-12-20T09:39:47;100365.00;;;11.88;95.91
43420;BME280;29017;51.514;-0.178;2022-12-20T09:42:16;100382.44;;;11.89;95.58
43420;BME280;29017;51.514;-0.178;2022-12-20T09:44:44;100372.91;;;11.88;96.05
43420;BME280;29017;51.514;-0.178;2022-12-20T09:49:43;100375.41;;;11.81;95.13
43420;BME280;29017;51.514;-0.178;2022-12-20T09:59:39;100387.28;;;11.77;95.44
43420;BME280;29017;51.514;-0.178;2022-12-20T10:02:15;100394.53;;;11.75;95.89
43420;BME280;29017;51.514;-0.178;2022-12-20T10:05:08;100403.13;;;11.77;96.53
43420;BME280;29017;51.514;-0.178;2022-12-20T10:07:43;100390.41;;;11.81;97.38
43420;BME280;29017;51.514;-0.178;2022-12-20T10:15:14;100405.91;;;11.76;96.23
43420;BME280;29017;51.514;-0.178;2022-12-20T10:20:17;100408.72;;;11.74;95.67
43420;BME280;29017;51.514;-0.178;2022-12-20T10:25:19;100405.22;;;11.82;95.63
43420;BME280;29017;51.514;-0.178;2022-12-20T10:27:49;100404.88;;;11.85;96.26
43420;BME280;29017;51.514;-0.178;2022-12-20T10:30:17;100396.84;;;11.78;94.70
43420;BME280;29017;51.514;-0.178;2022-12-20T10:32:46;100398.84;;;11.68;94.14
43420;BME280;29017;51.514;-0.178;2022-12-20T10:46:07;100400.78;;;11.82;95.21
43420;BME280;29017;51.514;-0.178;2022-12-20T10:48:36;100391.69;;;11.85;95.78
43420;BME280;29017;51.514;-0.178;2022-12-20T10:51:12;100396.44;;;11.89;95.29
43420;BME280;29017;51.514;-0.178;2022-12-20T10:58:42;100392.50;;;11.93;94.29
43420;BME280;29017;51.514;-0.178;2022-12-20T11:01:17;100394.78;;;11.96;93.55
43420;BME280;29017;51.514;-0.178;2022-12-20T11:06:16;100393.78;;;11.97;93.23
43420;BME280;29017;51.514;-0.178;2022-12-20T11:08:44;100396.22;;;11.99;93.40
43420;BME280;29017;51.514;-0.178;2022-12-20T11:11:23;100397.34;;;12.05;93.10
43420;BME280;29017;51.514;-0.178;2022-12-20T11:13:50;100398.03;;;12.07;92.94
43420;BME280;29017;51.514;-0.178;2022-12-20T11:23:55;100398.84;;;12.07;90.61
43420;BME280;29017;51.514;-0.178;2022-12-20T11:31:26;100398.16;;;12.13;90.72
43420;BME280;29017;51.514;-0.178;2022-12-20T11:41:49;100411.66;;;12.18;90.02
43420;BME280;29017;51.514;-0.178;2022-12-20T11:44:24;100435.38;;;12.18;89.44
43420;BME280;29017;51.514;-0.178;2022-12-20T11:46:59;100421.84;;;12.21;89.52
43420;BME280;29017;51.514;-0.178;2022-12-20T11:54:31;100423.63;;;12.29;89.18
43420;BME280;29017;51.514;-0.178;2022-12-20T11:57:03;100414.53;;;12.31;89.79
43420;BME280;29017;51.514;-0.178;2022-12-20T12:04:35;100408.41;;;12.39;87.82
43420;BME280;29017;51.514;-0.178;2022-12-20T12:12:07;100401.09;;;12.41;87.48
43420;BME280;29017;51.514;-0.178;2022-12-20T12:17:08;100404.03;;;12.46;87.40
43420;BME280;29017;51.514;-0.178;2022-12-20T12:19:38;100403.88;;;12.48;87.96
43420;BME280;29017;51.514;-0.178;2022-12-20T12:22:11;100395.25;;;12.54;88.09
43420;BME280;29017;51.514;-0.178;2022-12-20T12:24:42;100393.06;;;12.57;88.00
43420;BME280;29017;51.514;-0.178;2022-12-20T12:27:14;100389.44;;;12.58;87.82
43420;BME280;29017;51.514;-0.178;2022-12-20T12:29:45;100389.97;;;12.54;86.11
43420;BME280;29017;51.514;-0.178;2022-12-20T12:32:16;100382.22;;;12.52;85.07
43420;BME280;29017;51.514;-0.178;2022-12-20T12:49:46;100383.63;;;12.63;83.21
43420;BME280;29017;51.514;-0.178;2022-12-20T12:54:45;100379.34;;;12.62;83.34
43420;BME280;29017;51.514;-0.178;2022-12-20T12:57:14;100377.06;;;12.59;81.73
43420;BME280;29017;51.514;-0.178;2022-12-20T12:59:43;100383.81;;;12.61;82.12
43420;BME280;29017;51.514;-0.178;2022-12-20T13:09:42;100382.94;;;12.69;81.92
43420;BME280;29017;51.514;-0.178;2022-12-20T13:39:45;100387.56;;;12.67;79.54
43420;BME280;29017;51.514;-0.178;2022-12-20T13:42:16;100384.09;;;12.66;78.92
43420;BME280;29017;51.514;-0.178;2022-12-20T13:44:47;100383.75;;;12.69;79.32
43420;BME280;29017;51.514;-0.178;2022-12-20T13:49:45;100381.91;;;12.70;80.01
43420;BME280;29017;51.514;-0.178;2022-12-20T13:55:01;100387.03;;;12.71;81.12
43420;BME280;29017;51.514;-0.178;2022-12-20T13:57:33;100389.03;;;12.69;80.86
43420;BME280;29017;51.514;-0.178;2022-12-20T14:00:12;100395.09;;;12.70;80.15
43420;BME280;29017;51.514;-0.178;2022-12-20T14:02:40;100395.78;;;12.72;79.87
43420;BME280;29017;51.514;-0.178;2022-12-20T14:07:38;100391.31;;;12.72;79.74
43420;BME280;29017;51.514;-0.178;2022-12-20T14:12:35;100392.00;;;12.66;78.55
43420;BME280;29017;51.514;-0.178;2022-12-20T14:15:17;100392.00;;;12.66;78.65
43420;BME280;29017;51.514;-0.178;2022-12-20T14:17:46;100394.03;;;12.64;79.02
43420;BME280;29017;51.514;-0.178;2022-12-20T14:20:15;100387.09;;;12.63;79.70
43420;BME280;29017;51.514;-0.178;2022-12-20T14:25:14;100401.00;;;12.57;79.10
43420;BME280;29017;51.514;-0.178;2022-12-20T14:27:42;100395.34;;;12.60;79.72
43420;BME280;29017;51.514;-0.178;2022-12-20T14:32:39;100386.09;;;12.64;80.29
43420;BME280;29017;51.514;-0.178;2022-12-20T14:35:17;100390.38;;;12.65;80.02
43420;BME280;29017;51.514;-0.178;2022-12-20T14:37:51;100398.66;;;12.62;79.15
43420;BME280;29017;51.514;-0.178;2022-12-20T14:40:18;100406.09;;;12.59;78.06
43420;BME280;29017;51.514;-0.178;2022-12-20T14:42:46;100414.84;;;12.59;78.63
43420;BME280;29017;51.514;-0.178;2022-12-20T14:52:41;100427.56;;;12.56;78.22
43420;BME280;29017;51.514;-0.178;2022-12-20T14:57:43;100418.72;;;12.49;77.80
43420;BME280;29017;51.514;-0.178;2022-12-20T15:05:07;100414.75;;;12.44;79.00
43420;BME280;29017;51.514;-0.178;2022-12-20T15:07:34;100414.13;;;12.42;77.78
43420;BME280;29017;51.514;-0.178;2022-12-20T15:10:07;100415.13;;;12.41;78.71
43420;BME280;29017;51.514;-0.178;2022-12-20T15:12:34;100407.38;;;12.40;78.54
43420;BME280;29017;51.514;-0.178;2022-12-20T15:15:10;100395.19;;;12.39;79.04
43420;BME280;29017;51.514;-0.178;2022-12-20T15:17:54;100390.41;;;12.34;78.95
43420;BME280;29017;51.514;-0.178;2022-12-20T15:20:21;100392.59;;;12.31;79.17
43420;BME280;29017;51.514;-0.178;2022-12-20T15:22:48;100402.53;;;12.29;79.34
43420;BME280;29017;51.514;-0.178;2022-12-20T15:25:16;100407.31;;;12.25;79.00
43420;BME280;29017;51.514;-0.178;2022-12-20T15:27:43;100413.75;;;12.23;79.31
43420;BME280;29017;51.514;-0.178;2022-12-20T15:30:11;100426.47;;;12.19;78.76
43420;BME280;29017;51.514;-0.178;2022-12-20T15:32:40;100418.91;;;12.16;78.91
43420;BME280;29017;51.514;-0.178;2022-12-20T15:35:21;100420.56;;;12.17;79.55
43420;BME280;29017;51.514;-0.178;2022-12-20T15:37:48;100418.44;;;12.13;78.02
43420;BME280;29017;51.514;-0.178;2022-12-20T15:40:15;100428.69;;;12.08;78.69
43420;BME280;29017;51.514;-0.178;2022-12-20T15:42:42;100425.53;;;12.04;79.21
43420;BME280;29017;51.514;-0.178;2022-12-20T15:45:11;100426.56;;;12.03;79.65
43420;BME280;29017;51.514;-0.178;2022-12-20T15:47:38;100430.50;;;11.99;79.75
43420;BME280;29017;51.514;-0.178;2022-12-20T15:50:06;100425.25;;;11.99;80.59
43420;BME280;29017;51.514;-0.178;2022-12-20T15:52:33;100421.16;;;11.96;80.95
43420;BME280;29017;51.514;-0.178;2022-12-20T15:55:00;100433.03;;;11.92;81.12
43420;BME280;29017;51.514;-0.178;2022-12-20T15:57:27;100425.44;;;11.89;81.58
43420;BME280;29017;51.514;-0.178;2022-12-20T15:59:55;100434.53;;;11.87;81.29
43420;BME280;29017;51.514;-0.178;2022-12-20T16:02:27;100442.78;;;11.84;81.09